sensor_id;sensor_type;location;lat;lon;timestamp;pressure;altitude;pressure_sealevel;temperature;humidity
75051;BME280;63628;47.656;11.310;2023-02-15T00:01:06;96045.41;;;3.89;75.48
75051;BME280;63628;47.656;11.310;2023-02-15T00:03:33;96045.28;;;3.91;75.28
75051;BME280;63628;47.656;11.310;2023-02-15T00:05:59;96047.19;;;3.89;75.46
75051;BME280;63628;47.656;11.310;2023-02-15T00:08:26;96034.09;;;3.89;75.10
75051;BME280;63628;47.656;11.310;2023-02-15T00:11:03;96045.41;;;2.87;73.37
75051;BME280;63628;47.656;11.310;2023-02-15T00:13:30;96039.16;;;3.74;75.72
75051;BME280;63628;47.656;11.310;2023-02-15T00:16:00;96036.56;;;3.82;75.92
75051;BME280;63628;47.656;11.310;2023-02-15T00:18:29;96037.38;;;3.82;76.05
75051;BME280;63628;47.656;11.310;2023-02-15T00:20:55;96034.09;;;3.80;75.82
75051;BME280;63628;47.656;11.310;2023-02-15T00:23:22;96033.28;;;3.80;75.19
75051;BME280;63628;47.656;11.310;2023-02-15T00:25:48;96034.91;;;3.81;75.92
75051;BME280;63628;47.656;11.310;2023-02-15T00:28:16;96034.75;;;3.82;75.21
75051;BME280;63628;47.656;11.310;2023-02-15T00:30:42;96042.31;;;3.17;77.58
75051;BME280;63628;47.656;11.310;2023-02-15T00:33:09;96039.13;;;3.66;76.34
75051;BME280;63628;47.656;11.310;2023-02-15T00:35:37;96035.72;;;3.73;75.56
75051;BME280;63628;47.656;11.310;2023-02-15T00:38:03;96038.72;;;3.44;76.10
75051;BME280;63628;47.656;11.310;2023-02-15T00:40:30;96042.25;;;3.69;75.42
75051;BME280;63628;47.656;11.310;2023-02-15T00:42:56;96041.06;;;2.70;63.38
75051;BME280;63628;47.656;11.310;2023-02-15T00:45:24;96049.91;;;1.70;81.94
75051;BME280;63628;47.656;11.310;2023-02-15T00:47:51;96040.06;;;3.23;77.41
75051;BME280;63628;47.656;11.310;2023-02-15T00:50:17;96039.38;;;3.46;76.33
75051;BME280;63628;47.656;11.310;2023-02-15T00:52:45;96029.59;;;3.57;76.12
75051;BME280;63628;47.656;11.310;2023-02-15T00:55:12;96037.44;;;3.23;76.06
75051;BME280;63628;47.656;11.310;2023-02-15T00:57:38;96033.34;;;3.54;75.95
75051;BME280;63628;47.656;11.310;2023-02-15T01:00:06;96034.84;;;3.57;75.78
75051;BME280;63628;47.656;11.310;2023-02-15T01:02:33;96034.19;;;3.55;75.64
75051;BME280;63628;47.656;11.310;2023-02-15T01:05:00;96034.03;;;3.56;75.79
75051;BME280;63628;47.656;11.310;2023-02-15T01:07:26;96033.03;;;3.57;75.77
75051;BME280;63628;47.656;11.310;2023-02-15T01:09:54;96029.91;;;3.54;75.32
75051;BME280;63628;47.656;11.310;2023-02-15T01:12:21;96030.91;;;3.53;75.93
75051;BME280;63628;47.656;11.310;2023-02-15T01:14:47;96018.78;;;3.52;75.62
75051;BME280;63628;47.656;11.310;2023-02-15T01:17:14;96023.03;;;3.53;75.20
75051;BME280;63628;47.656;11.310;2023-02-15T01:19:40;96017.81;;;3.53;75.43
75051;BME280;63628;47.656;11.310;2023-02-15T01:22:07;96018.94;;;3.50;75.09
75051;BME280;63628;47.656;11.310;2023-02-15T01:24:33;96011.25;;;3.48;75.66
75051;BME280;63628;47.656;11.310;2023-02-15T01:27:01;96011.22;;;1.83;76.87
75051;BME280;63628;47.656;11.310;2023-02-15T01:29:28;96011.44;;;3.21;76.68
75051;BME280;63628;47.656;11.310;2023-02-15T01:31:54;96006.00;;;3.40;76.24
75051;BME280;63628;47.656;11.310;2023-02-15T01:34:21;96001.59;;;2.81;77.19
75051;BME280;63628;47.656;11.310;2023-02-15T01:36:48;95997.47;;;3.30;75.96
75051;BME280;63628;47.656;11.310;2023-02-15T01:39:14;95995.22;;;3.43;75.47
75051;BME280;63628;47.656;11.310;2023-02-15T01:41:41;95991.13;;;3.41;75.91
75051;BME280;63628;47.656;11.310;2023-02-15T01:47:30;95984.59;;;2.33;63.68
75051;BME280;63628;47.656;11.310;2023-02-15T01:50:02;95991.19;;;3.23;76.07
75051;BME280;63628;47.656;11.310;2023-02-15T01:52:30;95991.25;;;3.31;75.70
75051;BME280;63628;47.656;11.310;2023-02-15T01:54:57;95983.25;;;3.33;75.60
75051;BME280;63628;47.656;11.310;2023-02-15T01:57:25;95985.34;;;3.29;75.77
75051;BME280;63628;47.656;11.310;2023-02-15T01:59:56;95979.81;;;3.32;75.62
75051;BME280;63628;47.656;11.310;2023-02-15T02:02:24;95978.50;;;3.28;75.90
75051;BME280;63628;47.656;11.310;2023-02-15T02:04:54;95988.28;;;3.26;75.71
75051;BME280;63628;47.656;11.310;2023-02-15T02:07:27;95972.72;;;3.25;75.45
75051;BME280;63628;47.656;11.310;2023-02-15T02:09:54;95977.13;;;3.24;75.86
75051;BME280;63628;47.656;11.310;2023-02-15T02:12:22;95968.34;;;3.25;75.45
75051;BME280;63628;47.656;11.310;2023-02-15T02:14:50;95971.25;;;3.22;75.57
75051;BME280;63628;47.656;11.310;2023-02-15T02:17:22;95974.53;;;3.24;75.43
75051;BME280;63628;47.656;11.310;2023-02-15T02:20:18;95965.84;;;3.24;75.65
75051;BME280;63628;47.656;11.310;2023-02-15T02:23:19;95958.16;;;3.22;74.99
75051;BME280;63628;47.656;11.310;2023-02-15T02:29:33;95964.22;;;3.23;75.32
75051;BME280;63628;47.656;11.310;2023-02-15T02:32:32;95969.16;;;3.26;75.23
75051;BME280;63628;47.656;11.310;2023-02-15T02:35:09;95958.09;;;3.06;75.46
75051;BME280;63628;47.656;11.310;2023-02-15T02:37:46;95956.50;;;3.13;75.21
75051;BME280;63628;47.656;11.310;2023-02-15T02:40:18;95963.06;;;3.17;75.78
75051;BME280;63628;47.656;11.310;2023-02-15T02:42:51;95962.88;;;3.10;75.38
75051;BME280;63628;47.656;11.310;2023-02-15T02:45:25;95970.38;;;3.13;75.37
75051;BME280;63628;47.656;11.310;2023-02-15T02:47:56;95962.88;;;3.10;75.72
75051;BME280;63628;47.656;11.310;2023-02-15T02:50:28;95965.47;;;3.10;75.43
75051;BME280;63628;47.656;11.310;2023-02-15T02:52:57;95962.19;;;3.08;75.54
75051;BME280;63628;47.656;11.310;2023-02-15T02:55:28;95960.72;;;3.06;75.37
75051;BME280;63628;47.656;11.310;2023-02-15T02:58:00;95960.41;;;3.09;75.13
75051;BME280;63628;47.656;11.310;2023-02-15T03:00:34;95956.47;;;3.05;75.53
75051;BME280;63628;47.656;11.310;2023-02-15T03:03:06;95960.88;;;3.04;75.31
75051;BME280;63628;47.656;11.310;2023-02-15T03:05:39;95966.91;;;3.05;75.33
75051;BME280;63628;47.656;11.310;2023-02-15T03:08:07;95971.34;;;3.04;75.26
75051;BME280;63628;47.656;11.310;2023-02-15T03:10:36;95969.13;;;1.78;64.15
75051;BME280;63628;47.656;11.310;2023-02-15T03:13:05;95978.81;;;0.86;82.18
75051;BME280;63628;47.656;11.310;2023-02-15T03:15:35;95963.59;;;2.61;77.29
75051;BME280;63628;47.656;11.310;2023-02-15T03:18:24;95972.53;;;1.61;65.23
75051;BME280;63628;47.656;11.310;2023-02-15T03:20:53;95975.84;;;2.60;76.92
75051;BME280;63628;47.656;11.310;2023-02-15T03:23:23;95977.09;;;2.82;75.92
75051;BME280;63628;47.656;11.310;2023-02-15T03:25:56;95975.00;;;2.85;75.97
75051;BME280;63628;47.656;11.310;2023-02-15T03:28:29;95978.28;;;2.88;75.98
75051;BME280;63628;47.656;11.310;2023-02-15T03:31:00;95974.03;;;2.86;75.79
75051;BME280;63628;47.656;11.310;2023-02-15T03:33:29;95974.34;;;2.83;76.07
75051;BME280;63628;47.656;11.310;2023-02-15T03:36:02;95978.28;;;2.88;75.59
75051;BME280;63628;47.656;11.310;2023-02-15T03:38:35;95981.50;;;2.81;76.02
75051;BME280;63628;47.656;11.310;2023-02-15T03:41:05;95971.56;;;2.85;75.88
75051;BME280;63628;47.656;11.310;2023-02-15T03:43:42;95971.56;;;2.85;75.25
75051;BME280;63628;47.656;11.310;2023-02-15T03:46:15;95972.03;;;2.80;75.76
75051;BME280;63628;47.656;11.310;2023-02-15T03:48:47;95976.28;;;2.81;75.79
75051;BME280;63628;47.656;11.310;2023-02-15T03:51:21;95974.97;;;2.77;75.93
75051;BME280;63628;47.656;11.310;2023-02-15T03:54:02;95973.81;;;2.80;76.06
75051;BME280;63628;47.656;11.310;2023-02-15T03:56:29;95979.06;;;2.80;75.41
75051;BME280;63628;47.656;11.310;2023-02-15T03:58:56;95984.13;;;1.31;68.83
75051;BME280;63628;47.656;11.310;2023-02-15T04:01:47;95975.69;;;2.62;76.25
75051;BME280;63628;47.656;11.310;2023-02-15T04:04:34;95974.56;;;2.20;73.88
75051;BME280;63628;47.656;11.310;2023-02-15T04:07:04;95973.44;;;2.67;75.97
75051;BME280;63628;47.656;11.310;2023-02-15T04:09:32;95975.56;;;2.71;75.81
75051;BME280;63628;47.656;11.310;2023-02-15T04:12:17;95973.78;;;2.72;75.95
75051;BME280;63628;47.656;11.310;2023-02-15T04:14:43;95976.09;;;2.75;75.83
75051;BME280;63628;47.656;11.310;2023-02-15T04:17:29;95979.81;;;2.72;76.08
75051;BME280;63628;47.656;11.310;2023-02-15T04:19:55;95977.22;;;2.72;75.47
75051;BME280;63628;47.656;11.310;2023-02-15T04:22:42;95982.53;;;2.19;73.33
75051;BME280;63628;47.656;11.310;2023-02-15T04:25:27;95984.19;;;2.64;75.80
75051;BME280;63628;47.656;11.310;2023-02-15T04:27:54;95985.00;;;2.64;75.72
75051;BME280;63628;47.656;11.310;2023-02-15T04:30:23;95988.59;;;2.63;75.90
75051;BME280;63628;47.656;11.310;2023-02-15T04:32:50;95979.13;;;2.62;76.17
75051;BME280;63628;47.656;11.310;2023-02-15T04:35:17;95979.94;;;2.63;75.88
75051;BME280;63628;47.656;11.310;2023-02-15T04:37:45;95979.41;;;2.59;75.99
75051;BME280;63628;47.656;11.310;2023-02-15T04:40:13;95982.81;;;2.60;75.88
75051;BME280;63628;47.656;11.310;2023-02-15T04:42:43;95978.56;;;2.59;76.12
75051;BME280;63628;47.656;11.310;2023-02-15T04:45:09;95981.34;;;2.57;74.68
75051;BME280;63628;47.656;11.310;2023-02-15T04:47:36;95979.78;;;2.64;74.91
75051;BME280;63628;47.656;11.310;2023-02-15T04:50:03;95986.22;;;2.52;75.82
75051;BME280;63628;47.656;11.310;2023-02-15T04:52:30;95978.06;;;2.55;75.88
75051;BME280;63628;47.656;11.310;2023-02-15T04:54:58;95978.22;;;2.53;75.79
75051;BME280;63628;47.656;11.310;2023-02-15T04:57:25;95973.81;;;2.54;75.73
75051;BME280;63628;47.656;11.310;2023-02-15T04:59:51;95973.16;;;2.52;75.91
75051;BME280;63628;47.656;11.310;2023-02-15T05:02:18;95978.38;;;2.52;75.89
75051;BME280;63628;47.656;11.310;2023-02-15T05:04:44;95972.31;;;2.51;75.82
75051;BME280;63628;47.656;11.310;2023-02-15T05:07:11;95968.88;;;2.51;75.44
75051;BME280;63628;47.656;11.310;2023-02-15T05:09:37;95971.97;;;2.46;75.54
75051;BME280;63628;47.656;11.310;2023-02-15T05:12:06;95969.19;;;2.48;75.73
75051;BME280;63628;47.656;11.310;2023-02-15T05:14:32;95970.31;;;2.45;75.55
75051;BME280;63628;47.656;11.310;2023-02-15T05:16:59;95957.56;;;2.42;75.57
75051;BME280;63628;47.656;11.310;2023-02-15T05:19:27;95966.22;;;2.43;75.67
75051;BME280;63628;47.656;11.310;2023-02-15T05:21:54;95970.47;;;2.44;75.75
75051;BME280;63628;47.656;11.310;2023-02-15T05:24:20;95977.50;;;2.43;75.68
75051;BME280;63628;47.656;11.310;2023-02-15T05:27:08;95966.53;;;2.40;75.59
75051;BME280;63628;47.656;11.310;2023-02-15T05:30:10;95978.31;;;2.44;75.01
75051;BME280;63628;47.656;11.310;2023-02-15T05:32:38;95973.69;;;2.38;75.62
75051;BME280;63628;47.656;11.310;2023-02-15T05:35:05;95973.53;;;2.39;75.86
75051;BME280;63628;47.656;11.310;2023-02-15T05:37:32;95980.06;;;2.35;75.51
75051;BME280;63628;47.656;11.310;2023-02-15T05:39:59;95982.50;;;2.37;75.60
75051;BME280;63628;47.656;11.310;2023-02-15T05:42:27;95989.00;;;2.33;75.74
75051;BME280;63628;47.656;11.310;2023-02-15T05:44:53;95988.34;;;2.31;75.86
75051;BME280;63628;47.656;11.310;2023-02-15T05:47:20;95989.16;;;2.31;75.32
75051;BME280;63628;47.656;11.310;2023-02-15T05:49:46;95987.38;;;2.32;75.61
75051;BME280;63628;47.656;11.310;2023-02-15T05:52:13;95991.91;;;2.30;75.45
75051;BME280;63628;47.656;11.310;2023-02-15T05:54:40;95987.81;;;2.27;75.84
75051;BME280;63628;47.656;11.310;2023-02-15T05:57:06;95985.22;;;2.27;75.65
75051;BME280;63628;47.656;11.310;2023-02-15T05:59:34;95984.53;;;2.25;75.75
75051;BME280;63628;47.656;11.310;2023-02-15T06:02:01;95984.03;;;2.21;76.15
75051;BME280;63628;47.656;11.310;2023-02-15T06:04:27;95983.88;;;2.23;75.64
75051;BME280;63628;47.656;11.310;2023-02-15T06:06:54;95985.66;;;2.22;75.73
75051;BME280;63628;47.656;11.310;2023-02-15T06:09:20;95984.03;;;2.21;75.71
75051;BME280;63628;47.656;11.310;2023-02-15T06:11:47;95982.38;;;2.20;75.73
75051;BME280;63628;47.656;11.310;2023-02-15T06:14:14;95998.06;;;2.20;75.86
75051;BME280;63628;47.656;11.310;2023-02-15T06:16:42;95982.69;;;2.17;75.69
75051;BME280;63628;47.656;11.310;2023-02-15T06:19:08;95991.34;;;2.18;75.60
75051;BME280;63628;47.656;11.310;2023-02-15T06:21:35;95987.91;;;2.17;75.58
75051;BME280;63628;47.656;11.310;2023-02-15T06:24:01;95991.50;;;2.16;75.93
75051;BME280;63628;47.656;11.310;2023-02-15T06:26:28;95998.81;;;2.13;75.79
75051;BME280;63628;47.656;11.310;2023-02-15T06:28:55;96004.03;;;2.13;75.77
75051;BME280;63628;47.656;11.310;2023-02-15T06:31:21;96000.59;;;2.12;75.46
75051;BME280;63628;47.656;11.310;2023-02-15T06:33:49;95997.47;;;2.09;75.72
75051;BME280;63628;47.656;11.310;2023-02-15T06:36:16;95998.28;;;2.09;75.72
75051;BME280;63628;47.656;11.310;2023-02-15T06:38:42;95997.47;;;2.09;75.52
75051;BME280;63628;47.656;11.310;2023-02-15T06:41:09;96005.31;;;2.09;75.57
75051;BME280;63628;47.656;11.310;2023-02-15T06:43:36;96010.16;;;1.58;65.43
75051;BME280;63628;47.656;11.310;2023-02-15T06:46:03;96006.75;;;1.94;75.97
75051;BME280;63628;47.656;11.310;2023-02-15T06:48:30;96011.25;;;2.01;75.81
75051;BME280;63628;47.656;11.310;2023-02-15T06:50:58;96007.69;;;2.02;75.57
75051;BME280;63628;47.656;11.310;2023-02-15T06:53:25;96010.44;;;2.01;75.65
75051;BME280;63628;47.656;11.310;2023-02-15T06:55:51;96014.19;;;1.98;75.78
75051;BME280;63628;47.656;11.310;2023-02-15T06:58:18;96009.78;;;1.99;75.69
75051;BME280;63628;47.656;11.310;2023-02-15T07:00:45;96015.16;;;1.97;75.67
75051;BME280;63628;47.656;11.310;2023-02-15T07:03:13;96020.50;;;1.96;75.38
75051;BME280;63628;47.656;11.310;2023-02-15T07:05:41;96018.03;;;1.94;75.85
75051;BME280;63628;47.656;11.310;2023-02-15T07:08:08;96013.63;;;1.95;75.68
75051;BME280;63628;47.656;11.310;2023-02-15T07:10:35;96014.47;;;1.95;75.74
75051;BME280;63628;47.656;11.310;2023-02-15T07:13:02;96021.09;;;1.44;76.35
75051;BME280;63628;47.656;11.310;2023-02-15T07:15:28;96020.19;;;1.36;66.08
75051;BME280;63628;47.656;11.310;2023-02-15T07:17:57;96027.34;;;1.24;77.48
75051;BME280;63628;47.656;11.310;2023-02-15T07:20:24;96025.03;;;1.76;76.17
75051;BME280;63628;47.656;11.310;2023-02-15T07:22:51;96022.50;;;1.84;75.51
75051;BME280;63628;47.656;11.310;2023-02-15T07:25:19;96022.34;;;1.85;75.71
75051;BME280;63628;47.656;11.310;2023-02-15T07:27:46;96020.63;;;1.94;74.81
75051;BME280;63628;47.656;11.310;2023-02-15T07:30:15;96037.25;;;0.83;69.44
75051;BME280;63628;47.656;11.310;2023-02-15T07:32:42;96030.75;;;1.62;76.43
75051;BME280;63628;47.656;11.310;2023-02-15T07:35:31;96024.44;;;1.82;75.64
75051;BME280;63628;47.656;11.310;2023-02-15T07:37:57;96028.03;;;1.26;68.56
75051;BME280;63628;47.656;11.310;2023-02-15T07:40:28;96017.22;;;1.21;76.40
75051;BME280;63628;47.656;11.310;2023-02-15T07:42:57;96014.25;;;0.69;71.38
75051;BME280;63628;47.656;11.310;2023-02-15T07:45:25;96019.16;;;0.62;70.90
75051;BME280;63628;47.656;11.310;2023-02-15T07:47:51;96012.97;;;0.83;69.15
75051;BME280;63628;47.656;11.310;2023-02-15T07:50:18;96014.63;;;0.84;76.82
75051;BME280;63628;47.656;11.310;2023-02-15T07:52:45;96012.41;;;1.53;75.92
75051;BME280;63628;47.656;11.310;2023-02-15T07:55:11;96007.28;;;1.79;73.76
75051;BME280;63628;47.656;11.310;2023-02-15T07:57:42;96007.06;;;1.90;72.99
75051;BME280;63628;47.656;11.310;2023-02-15T08:00:11;95996.31;;;1.94;74.23
75051;BME280;63628;47.656;11.310;2023-02-15T08:02:39;95997.81;;;1.78;75.57
75051;BME280;63628;47.656;11.310;2023-02-15T08:05:06;95999.22;;;1.73;76.08
75051;BME280;63628;47.656;11.310;2023-02-15T08:07:33;95987.22;;;1.80;75.69
75051;BME280;63628;47.656;11.310;2023-02-15T08:09:59;95997.03;;;1.96;75.80
75051;BME280;63628;47.656;11.310;2023-02-15T08:12:26;95992.47;;;1.98;74.64
75051;BME280;63628;47.656;11.310;2023-02-15T08:14:54;95995.50;;;1.93;74.65
75051;BME280;63628;47.656;11.310;2023-02-15T08:17:21;95992.16;;;1.83;75.74
75051;BME280;63628;47.656;11.310;2023-02-15T08:19:47;95989.94;;;2.49;70.86
75051;BME280;63628;47.656;11.310;2023-02-15T08:22:14;95985.88;;;2.29;70.30
75051;BME280;63628;47.656;11.310;2023-02-15T08:24:40;95983.97;;;2.13;73.83
75051;BME280;63628;47.656;11.310;2023-02-15T08:27:10;95988.94;;;2.25;75.21
75051;BME280;63628;47.656;11.310;2023-02-15T08:29:37;95988.72;;;3.22;69.11
75051;BME280;63628;47.656;11.310;2023-02-15T08:32:08;95991.66;;;2.15;72.96
75051;BME280;63628;47.656;11.310;2023-02-15T08:34:38;95978.59;;;3.61;71.43
75051;BME280;63628;47.656;11.310;2023-02-15T08:37:05;95985.44;;;3.54;66.01
75051;BME280;63628;47.656;11.310;2023-02-15T08:39:32;95976.88;;;4.34;67.40
75051;BME280;63628;47.656;11.310;2023-02-15T08:41:59;95976.88;;;3.94;69.35
75051;BME280;63628;47.656;11.310;2023-02-15T08:44:25;95981.97;;;4.20;65.79
75051;BME280;63628;47.656;11.310;2023-02-15T08:46:52;95984.91;;;2.74;67.58
75051;BME280;63628;47.656;11.310;2023-02-15T08:49:21;95981.13;;;2.68;72.95
75051;BME280;63628;47.656;11.310;2023-02-15T08:51:49;95985.13;;;1.48;73.87
75051;BME280;63628;47.656;11.310;2023-02-15T08:54:19;95985.47;;;2.42;70.96
75051;BME280;63628;47.656;11.310;2023-02-15T08:56:46;95987.44;;;2.40;76.23
75051;BME280;63628;47.656;11.310;2023-02-15T08:59:15;95984.13;;;3.58;74.33
75051;BME280;63628;47.656;11.310;2023-02-15T09:01:42;95975.56;;;4.38;69.68
75051;BME280;63628;47.656;11.310;2023-02-15T09:04:09;95984.16;;;3.66;70.43
75051;BME280;63628;47.656;11.310;2023-02-15T09:06:39;95985.31;;;3.63;69.93
75051;BME280;63628;47.656;11.310;2023-02-15T09:09:06;95973.56;;;6.07;62.41
75051;BME280;63628;47.656;11.310;2023-02-15T09:11:35;95978.53;;;5.31;66.29
75051;BME280;63628;47.656;11.310;2023-02-15T09:14:04;95981.25;;;4.91;64.74
75051;BME280;63628;47.656;11.310;2023-02-15T09:16:32;95968.50;;;6.65;63.79
75051;BME280;63628;47.656;11.310;2023-02-15T09:18:59;95973.03;;;5.49;62.99
75051;BME280;63628;47.656;11.310;2023-02-15T09:21:34;95973.44;;;4.74;66.44
75051;BME280;63628;47.656;11.310;2023-02-15T09:24:05;95963.47;;;6.93;63.24
75051;BME280;63628;47.656;11.310;2023-02-15T09:26:35;95964.59;;;7.64;61.57
75051;BME280;63628;47.656;11.310;2023-02-15T09:29:03;95963.41;;;7.16;59.84
75051;BME280;63628;47.656;11.310;2023-02-15T09:31:31;95956.22;;;7.76;60.10
75051;BME280;63628;47.656;11.310;2023-02-15T09:33:59;95955.03;;;7.42;62.20
75051;BME280;63628;47.656;11.310;2023-02-15T09:36:31;95950.69;;;7.85;60.42
75051;BME280;63628;47.656;11.310;2023-02-15T09:39:01;95951.22;;;9.57;59.52
75051;BME280;63628;47.656;11.310;2023-02-15T09:41:58;95953.47;;;6.74;66.22
75051;BME280;63628;47.656;11.310;2023-02-15T09:44:38;95957.00;;;7.11;60.05
75051;BME280;63628;47.656;11.310;2023-02-15T09:47:24;95960.84;;;6.18;65.00
75051;BME280;63628;47.656;11.310;2023-02-15T09:49:59;95965.66;;;5.76;65.87
75051;BME280;63628;47.656;11.310;2023-02-15T09:52:51;95961.16;;;6.61;65.02
75051;BME280;63628;47.656;11.310;2023-02-15T09:55:37;95969.03;;;4.18;70.33
75051;BME280;63628;47.656;11.310;2023-02-15T09:58:15;95964.41;;;7.15;65.81
75051;BME280;63628;47.656;11.310;2023-02-15T10:00:49;95959.00;;;4.54;69.41
75051;BME280;63628;47.656;11.310;2023-02-15T10:03:36;95957.69;;;5.30;68.58
75051;BME280;63628;47.656;11.310;2023-02-15T10:06:29;95966.09;;;4.21;69.41
75051;BME280;63628;47.656;11.310;2023-02-15T10:09:27;95953.97;;;5.55;65.50
75051;BME280;63628;47.656;11.310;2023-02-15T10:12:08;95948.53;;;6.56;62.70
75051;BME280;63628;47.656;11.310;2023-02-15T10:15:08;95944.34;;;10.36;58.14
75051;BME280;63628;47.656;11.310;2023-02-15T10:17:49;95942.78;;;9.05;58.77
75051;BME280;63628;47.656;11.310;2023-02-15T10:20:28;95938.06;;;8.02;58.48
75051;BME280;63628;47.656;11.310;2023-02-15T10:23:08;95938.19;;;10.16;57.73
75051;BME280;63628;47.656;11.310;2023-02-15T10:25:43;95932.16;;;8.92;53.61
75051;BME280;63628;47.656;11.310;2023-02-15T10:28:17;95927.91;;;8.20;59.52
75051;BME280;63628;47.656;11.310;2023-02-15T10:30:48;95930.94;;;8.39;61.50
75051;BME280;63628;47.656;11.310;2023-02-15T10:33:30;95922.56;;;9.60;60.21
75051;BME280;63628;47.656;11.310;2023-02-15T10:36:08;95921.47;;;11.34;49.71
75051;BME280;63628;47.656;11.310;2023-02-15T10:38:41;95930.63;;;7.19;60.96
75051;BME280;63628;47.656;11.310;2023-02-15T10:41:22;95929.81;;;7.18;62.36
75051;BME280;63628;47.656;11.310;2023-02-15T10:44:04;95935.00;;;6.22;64.53
75051;BME280;63628;47.656;11.310;2023-02-15T10:46:59;95924.97;;;7.07;59.55
75051;BME280;63628;47.656;11.310;2023-02-15T10:49:42;95921.09;;;7.18;59.03
75051;BME280;63628;47.656;11.310;2023-02-15T10:52:21;95926.91;;;6.46;60.55
75051;BME280;63628;47.656;11.310;2023-02-15T10:55:01;95929.53;;;6.09;64.13
75051;BME280;63628;47.656;11.310;2023-02-15T10:57:36;95921.19;;;5.20;68.47
75051;BME280;63628;47.656;11.310;2023-02-15T11:00:09;95915.19;;;6.34;69.08
75051;BME280;63628;47.656;11.310;2023-02-15T11:03:00;95913.81;;;6.23;65.07
75051;BME280;63628;47.656;11.310;2023-02-15T11:05:37;95902.25;;;7.86;58.69
75051;BME280;63628;47.656;11.310;2023-02-15T11:08:09;95907.16;;;7.75;60.50
75051;BME280;63628;47.656;11.310;2023-02-15T11:10:39;95893.69;;;8.27;57.00
75051;BME280;63628;47.656;11.310;2023-02-15T11:13:10;95894.97;;;7.16;61.57
75051;BME280;63628;47.656;11.310;2023-02-15T11:15:42;95896.22;;;6.24;64.80
75051;BME280;63628;47.656;11.310;2023-02-15T11:18:15;95871.94;;;13.95;42.56
75051;BME280;63628;47.656;11.310;2023-02-15T11:20:50;95872.22;;;12.78;41.78
75051;BME280;63628;47.656;11.310;2023-02-15T11:23:20;95875.94;;;10.73;46.57
75051;BME280;63628;47.656;11.310;2023-02-15T11:25:53;95875.84;;;9.74;49.82
75051;BME280;63628;47.656;11.310;2023-02-15T11:28:24;95865.88;;;11.15;48.41
75051;BME280;63628;47.656;11.310;2023-02-15T11:30:55;95865.94;;;8.87;54.39
75051;BME280;63628;47.656;11.310;2023-02-15T11:33:27;95865.16;;;9.34;52.40
75051;BME280;63628;47.656;11.310;2023-02-15T11:35:59;95854.31;;;10.89;45.54
75051;BME280;63628;47.656;11.310;2023-02-15T11:38:29;95856.78;;;8.83;58.48
75051;BME280;63628;47.656;11.310;2023-02-15T11:41:01;95842.28;;;12.21;41.22
75051;BME280;63628;47.656;11.310;2023-02-15T11:43:33;95835.44;;;13.54;39.91
75051;BME280;63628;47.656;11.310;2023-02-15T11:46:02;95835.78;;;12.66;45.79
75051;BME280;63628;47.656;11.310;2023-02-15T11:48:31;95833.31;;;10.94;41.09
75051;BME280;63628;47.656;11.310;2023-02-15T11:50:58;95828.88;;;13.87;43.77
75051;BME280;63628;47.656;11.310;2023-02-15T11:53:30;95827.03;;;11.40;40.12
75051;BME280;63628;47.656;11.310;2023-02-15T11:55:58;95829.03;;;11.06;47.57
75051;BME280;63628;47.656;11.310;2023-02-15T11:58:29;95831.94;;;10.78;44.00
75051;BME280;63628;47.656;11.310;2023-02-15T12:01:01;95818.69;;;11.36;42.32
75051;BME280;63628;47.656;11.310;2023-02-15T12:03:41;95814.81;;;11.39;40.39
75051;BME280;63628;47.656;11.310;2023-02-15T12:06:16;95815.66;;;10.75;43.81
75051;BME280;63628;47.656;11.310;2023-02-15T12:08:48;95809.19;;;11.22;43.44
75051;BME280;63628;47.656;11.310;2023-02-15T12:11:20;95807.75;;;11.26;44.21
75051;BME280;63628;47.656;11.310;2023-02-15T12:13:56;95806.53;;;11.60;43.81
75051;BME280;63628;47.656;11.310;2023-02-15T12:16:24;95798.41;;;11.17;44.31
75051;BME280;63628;47.656;11.310;2023-02-15T12:18:55;95791.69;;;10.24;44.04
75051;BME280;63628;47.656;11.310;2023-02-15T12:21:28;95789.84;;;9.91;43.96
75051;BME280;63628;47.656;11.310;2023-02-15T12:24:00;95797.81;;;10.24;44.83
75051;BME280;63628;47.656;11.310;2023-02-15T12:26:30;95786.41;;;10.04;44.66
75051;BME280;63628;47.656;11.310;2023-02-15T12:28:58;95784.31;;;9.60;51.46
75051;BME280;63628;47.656;11.310;2023-02-15T12:31:31;95772.78;;;10.00;46.90
75051;BME280;63628;47.656;11.310;2023-02-15T12:34:02;95784.56;;;9.98;44.27
75051;BME280;63628;47.656;11.310;2023-02-15T12:36:32;95781.94;;;9.98;44.63
75051;BME280;63628;47.656;11.310;2023-02-15T12:39:04;95776.81;;;9.63;50.20
75051;BME280;63628;47.656;11.310;2023-02-15T12:41:31;95777.22;;;10.20;45.37
75051;BME280;63628;47.656;11.310;2023-02-15T12:44:07;95777.44;;;10.05;43.34
75051;BME280;63628;47.656;11.310;2023-02-15T12:46:39;95762.53;;;9.31;49.34
75051;BME280;63628;47.656;11.310;2023-02-15T12:49:18;95768.72;;;9.78;42.90
75051;BME280;63628;47.656;11.310;2023-02-15T12:51:49;95763.84;;;9.81;48.94
75051;BME280;63628;47.656;11.310;2023-02-15T12:56:58;95755.69;;;9.90;41.59
75051;BME280;63628;47.656;11.310;2023-02-15T12:59:24;95754.84;;;10.15;43.69
75051;BME280;63628;47.656;11.310;2023-02-15T13:01:52;95753.53;;;8.58;55.09
75051;BME280;63628;47.656;11.310;2023-02-15T13:04:25;95743.66;;;8.73;48.99
75051;BME280;63628;47.656;11.310;2023-02-15T13:06:55;95739.19;;;10.27;41.58
75051;BME280;63628;47.656;11.310;2023-02-15T13:09:32;95741.44;;;10.30;41.41
75051;BME280;63628;47.656;11.310;2023-02-15T13:12:10;95735.31;;;10.30;41.43
75051;BME280;63628;47.656;11.310;2023-02-15T13:14:43;95724.50;;;10.38;42.45
75051;BME280;63628;47.656;11.310;2023-02-15T13:17:12;95729.34;;;10.61;42.54
75051;BME280;63628;47.656;11.310;2023-02-15T13:19:43;95722.03;;;10.56;40.14
75051;BME280;63628;47.656;11.310;2023-02-15T13:22:14;95723.69;;;10.37;41.44
75051;BME280;63628;47.656;11.310;2023-02-15T13:24:43;95716.91;;;10.68;41.40
75051;BME280;63628;47.656;11.310;2023-02-15T13:27:12;95720.84;;;10.52;42.51
75051;BME280;63628;47.656;11.310;2023-02-15T13:29:43;95719.25;;;10.25;48.31